• Join FlightAware (Why Join?)
  • Login
  • US Flag 
02:38AM EDT


 

Airport Tracker/Info


-or-


 

Live Flight TrackerFlight Track Log ✈ ASQ5705 ✈ 07-Jul-2014 ✈ KIAD - KGSO

Flight Track Log - Related Links

Times and Time Zones

All times are in EDT time to prevent confusion due to time zone crossing. See the ASQ5705 flight status page for this flight to view local times or setup timezone preferences in your user account.

Time Position Orientation Groundspeed Altitude Reporting Facility
EDT Latitude Longitude Course Direction KTS MPH feet Rate Location/Type
05:50PM 38.9000 -77.4333 180° South 164 189 1,600  Level Potomac TRACON
05:51PM 38.8333 -77.4333 180° South 253 291 3,300 1,980 Climbing Potomac TRACON
05:52PM 38.7667 -77.4500 191° South 263 303 5,700 2,460 Climbing Potomac TRACON
05:53PM 38.7000 -77.4667 191° South 280 322 8,300 2,400 Climbing Potomac TRACON
05:54PM 38.6167 -77.4333 163° South 305 351 10,500 2,040 Climbing Potomac TRACON
05:55PM 38.5592 -77.4475 191° South 311 358 12,000 1,200 Climbing Washington Center
05:56PM 38.4769 -77.5064 209° Southwest 319 367 12,700 600 Climbing Washington Center
05:57PM 38.4011 -77.5656 211° Southwest 337 388 13,300 660 Climbing Washington Center
05:58PM 38.3306 -77.6669 228° Southwest 364 419 14,100 780 Climbing Washington Center
05:59PM 38.2639 -77.7708 231° Southwest 377 434 14,900 840 Climbing Washington Center
06:00PM 38.1953 -77.8744 230° Southwest 388 447 15,800 900 Climbing Washington Center
06:01PM 38.1286 -77.9806 231° Southwest 388 447 16,700 840 Climbing Washington Center
06:02PM 38.0578 -78.0864 230° Southwest 398 458 17,500 780 Climbing Washington Center
06:03PM 37.9931 -78.1872 231° Southwest 387 445 18,300 780 Climbing Washington Center
06:04PM 37.9219 -78.2872 228° Southwest 387 445 19,100 660 Climbing Washington Center
06:05PM 37.8325 -78.3708 216° Southwest 387 445 19,600 420 Climbing Washington Center
06:06PM 37.7428 -78.4542 216° Southwest 400 460 20,000 180 Climbing Washington Center
06:07PM 37.6489 -78.5400 216° Southwest 412 474 20,000  Level Washington Center
06:08PM 37.5531 -78.6278 216° Southwest 422 486 20,000  Level Washington Center
06:09PM 37.4547 -78.7156 215° Southwest 427 491 20,000  Level Washington Center
06:10PM 37.3586 -78.8031 216° Southwest 439 505 20,000  Level Washington Center
06:11PM 37.2603 -78.8928 216° Southwest 444 511 20,000  Level Washington Center
06:12PM 37.1594 -78.9850 216° Southwest 444 511 20,000  Level Washington Center
06:13PM 37.0631 -79.0719 216° Southwest 444 511 20,000 -540 Level Washington Center
06:14PM 36.9644 -79.1636 217° Southwest 444 511 19,000 -1,860 Descending Washington Center
06:15PM 36.8703 -79.2475 215° Southwest 438 504 16,400 -2,580 Descending Washington Center
06:16PM 36.7778 -79.3364 218° Southwest 413 475 13,900 -2,460 Descending Washington Center
06:18PM 36.6549 -79.4374 215° Southwest  Level FlightAware Approximate
06:25PM 36.1148 -79.9185 219° Southwest  Level FlightAware Approximate
06:26PM 36.1000 -79.9333 219° Southwest  Level FlightAware Approximate
06:27PM 36.1013 -79.9411 219° Southwest  Level Estimated
06:28PM 36.1000 -79.9333 219° Southwest  Level FlightAware Approximate
06:29PM 36.1013 -79.9411 219° Southwest  Level Estimated
06:30PM 36.1000 -79.9333 219° Southwest  Level FlightAware Approximate
06:31PM 36.1013 -79.9411 219° Southwest  Level Estimated
06:32PM 36.1000 -79.9333 219° Southwest  Level FlightAware Approximate